Time;durP1;ratioP1;P1;durP2;ratioP2;P2;SDS_P1;SDS_P2;PMS_P1;PMS_P2;Temp;Humidity;BMP_temperature;BMP_pressure;BME280_temperature;BME280_humidity;BME280_pressure;Samples;Min_cycle;Max_cycle;Signal;HPM_P1;HPM_P2
2023/12/30 00:00:39;;;;;;;2.58;1.38;;;5.90;99.90;;;;;;2034591;28;20284;-67
2023/12/30 00:01:39;;;;;;;1.33;1.23;;;5.90;99.90;;;;;;2023429;29;20706;-68
2023/12/30 00:02:40;;;;;;;1.10;1.00;;;5.90;99.90;;;;;;2041725;28;20604;-68
2023/12/30 00:03:41;;;;;;;3.47;1.33;;;5.90;99.90;;;;;;2050945;28;20289;-68
2023/12/30 00:04:41;;;;;;;4.33;1.33;;;5.80;99.90;;;;;;2045311;28;20702;-68
2023/12/30 00:05:43;;;;;;;2.95;1.45;;;5.80;99.90;;;;;;2045830;28;20298;-68
2023/12/30 00:06:44;;;;;;;2.10;1.10;;;5.80;99.90;;;;;;2042836;28;20291;-68
2023/12/30 00:07:45;;;;;;;1.83;1.40;;;5.80;99.90;;;;;;2042598;28;20239;-68
2023/12/30 00:08:46;;;;;;;1.85;1.38;;;5.80;99.90;;;;;;2043912;28;20257;-68
2023/12/30 00:09:47;;;;;;;1.30;1.10;;;5.80;99.90;;;;;;2044475;28;20243;-68
2023/12/30 00:10:47;;;;;;;2.30;1.80;;;5.80;99.90;;;;;;2030298;29;20244;-68
2023/12/30 00:11:48;;;;;;;1.60;1.43;;;5.80;99.90;;;;;;2030494;29;20239;-68
2023/12/30 00:12:49;;;;;;;1.67;1.30;;;5.80;99.90;;;;;;2045814;28;20231;-67
2023/12/30 00:13:49;;;;;;;1.57;1.17;;;5.80;99.90;;;;;;2046892;28;20246;-67
2023/12/30 00:14:50;;;;;;;1.30;1.10;;;5.80;99.90;;;;;;2036995;29;20696;-67
2023/12/30 00:15:51;;;;;;;1.37;1.20;;;5.70;99.90;;;;;;2043902;28;20243;-69
2023/12/30 00:16:52;;;;;;;2.50;1.30;;;5.70;99.90;;;;;;2043196;28;20236;-67
2023/12/30 00:17:52;;;;;;;1.80;1.43;;;5.70;99.90;;;;;;2044823;28;20472;-68
2023/12/30 00:18:53;;;;;;;2.20;1.33;;;5.70;99.90;;;;;;2046139;28;20601;-70
2023/12/30 00:19:54;;;;;;;3.87;1.53;;;5.70;99.90;;;;;;2038352;29;20251;-69
2023/12/30 00:20:55;;;;;;;1.35;1.25;;;5.70;99.90;;;;;;2028755;29;20606;-68
2023/12/30 00:21:55;;;;;;;1.40;1.17;;;5.70;99.90;;;;;;2027288;29;20264;-70
2023/12/30 00:22:56;;;;;;;1.70;1.27;;;5.70;99.90;;;;;;2045814;28;20247;-68
2023/12/30 00:23:57;;;;;;;2.20;1.40;;;5.70;99.90;;;;;;2034946;28;20249;-68
2023/12/30 00:24:57;;;;;;;1.70;1.43;;;5.60;99.90;;;;;;2043414;28;20228;-69
2023/12/30 00:25:58;;;;;;;1.30;1.20;;;5.60;99.90;;;;;;2044259;28;20712;-68
2023/12/30 00:26:59;;;;;;;3.30;1.20;;;5.60;99.90;;;;;;2043320;28;20245;-68
2023/12/30 00:27:59;;;;;;;1.63;1.20;;;5.60;99.90;;;;;;2039805;28;20242;-68
2023/12/30 00:29:00;;;;;;;2.13;1.30;;;5.60;99.90;;;;;;2036551;29;20329;-68
2023/12/30 00:30:01;;;;;;;1.30;1.20;;;5.60;99.90;;;;;;2032917;29;21549;-68
2023/12/30 00:31:02;;;;;;;1.43;1.23;;;5.60;99.90;;;;;;2033254;29;20199;-68
2023/12/30 00:32:03;;;;;;;1.70;0.93;;;5.50;99.90;;;;;;2043334;28;20791;-68
2023/12/30 00:33:05;;;;;;;1.00;0.90;;;5.50;99.90;;;;;;2041405;28;20184;-68
2023/12/30 00:34:05;;;;;;;1.60;1.30;;;5.50;99.90;;;;;;2039108;28;20184;-67
2023/12/30 00:35:09;;;;;;;1.30;1.20;;;5.60;99.90;;;;;;2042319;28;20195;-68
2023/12/30 00:36:10;;;;;;;1.52;1.30;;;5.50;99.90;;;;;;2043045;28;20629;-68
2023/12/30 00:37:13;;;;;;;2.17;1.13;;;5.50;99.90;;;;;;2034844;29;20188;-67
2023/12/30 00:38:14;;;;;;;3.60;1.48;;;5.50;99.90;;;;;;2027661;29;20186;-68
2023/12/30 00:39:14;;;;;;;1.87;1.30;;;5.40;99.90;;;;;;2030275;29;20264;-67
2023/12/30 00:40:15;;;;;;;1.87;1.20;;;5.50;99.90;;;;;;2045534;28;20259;-67
2023/12/30 00:41:16;;;;;;;1.10;1.00;;;5.40;99.90;;;;;;2043775;28;20965;-68
2023/12/30 00:42:16;;;;;;;1.07;0.90;;;5.50;99.90;;;;;;2045577;28;20203;-68
2023/12/30 00:43:17;;;;;;;1.57;1.20;;;5.40;99.90;;;;;;2035971;28;20243;-68
2023/12/30 00:44:18;;;;;;;1.33;1.07;;;5.40;99.90;;;;;;2035061;28;20212;-68
2023/12/30 00:45:18;;;;;;;2.20;1.13;;;5.40;99.90;;;;;;2034602;28;20659;-68
2023/12/30 00:46:19;;;;;;;2.50;1.50;;;5.50;99.90;;;;;;2041973;28;20221;-68
2023/12/30 00:47:20;;;;;;;1.63;1.10;;;5.40;99.90;;;;;;2042442;28;20184;-68
2023/12/30 00:48:21;;;;;;;1.20;1.10;;;5.40;99.90;;;;;;2032965;29;20236;-68
2023/12/30 00:49:21;;;;;;;1.40;1.23;;;5.40;99.90;;;;;;2034601;29;20263;-68
2023/12/30 00:50:22;;;;;;;2.40;1.20;;;5.40;99.90;;;;;;2044462;28;20318;-68
2023/12/30 00:51:23;;;;;;;2.43;1.30;;;5.30;99.90;;;;;;2039001;28;20731;-68
2023/12/30 00:52:23;;;;;;;1.23;1.07;;;5.40;99.90;;;;;;2036662;28;20323;-68
2023/12/30 00:53:24;;;;;;;1.57;1.07;;;5.40;99.90;;;;;;2042569;28;20232;-68
2023/12/30 00:54:25;;;;;;;1.97;1.20;;;5.40;99.90;;;;;;2044224;28;20629;-68
2023/12/30 00:55:25;;;;;;;4.53;1.40;;;5.40;99.90;;;;;;2045676;28;20326;-67
2023/12/30 00:56:26;;;;;;;1.23;1.10;;;5.40;99.90;;;;;;2050346;28;20678;-68
2023/12/30 00:57:27;;;;;;;2.60;1.30;;;5.40;99.90;;;;;;2041554;28;20266;-67
2023/12/30 00:58:27;;;;;;;2.57;1.20;;;5.40;99.90;;;;;;2043581;28;20232;-67
2023/12/30 00:59:28;;;;;;;2.40;1.70;;;5.40;99.90;;;;;;2043872;28;20231;-68
2023/12/30 01:00:29;;;;;;;1.20;1.10;;;5.40;99.90;;;;;;2043010;28;20293;-68
2023/12/30 01:01:29;;;;;;;1.40;1.30;;;5.40;99.90;;;;;;2045563;28;20396;-67
2023/12/30 01:02:30;;;;;;;1.17;1.00;;;5.40;99.90;;;;;;2045019;28;20235;-67
2023/12/30 01:03:31;;;;;;;1.57;1.10;;;5.40;99.90;;;;;;2044272;28;20358;-68
2023/12/30 01:04:31;;;;;;;1.83;0.90;;;5.50;99.90;;;;;;2044447;28;20235;-68
2023/12/30 01:05:32;;;;;;;2.43;1.20;;;5.40;99.90;;;;;;2043631;28;20724;-68
2023/12/30 01:06:33;;;;;;;3.70;1.57;;;5.40;99.90;;;;;;2042744;28;20259;-68
2023/12/30 01:07:34;;;;;;;3.67;1.00;;;5.40;99.90;;;;;;2035460;28;20240;-68
2023/12/30 01:08:35;;;;;;;1.23;1.13;;;5.40;99.90;;;;;;2046201;28;20231;-68
2023/12/30 01:09:35;;;;;;;2.17;0.87;;;5.40;99.90;;;;;;2045030;28;20266;-67
2023/12/30 01:10:36;;;;;;;1.70;1.00;;;5.30;99.90;;;;;;2034090;28;20717;-67
2023/12/30 01:11:37;;;;;;;2.50;1.13;;;5.30;99.90;;;;;;2034069;28;20267;-67
2023/12/30 01:12:37;;;;;;;1.57;1.00;;;5.30;99.90;;;;;;2037910;29;20282;-68
2023/12/30 01:13:38;;;;;;;1.50;1.40;;;5.30;99.90;;;;;;2037913;29;20239;-68
2023/12/30 01:14:39;;;;;;;2.07;1.00;;;5.30;99.90;;;;;;2045655;28;20278;-68
2023/12/30 01:15:39;;;;;;;1.20;1.10;;;5.30;99.90;;;;;;2045639;28;20231;-68
2023/12/30 01:16:40;;;;;;;1.43;1.03;;;5.40;99.90;;;;;;2042130;28;20227;-68
2023/12/30 01:17:41;;;;;;;1.53;1.07;;;5.40;99.90;;;;;;2041742;28;20806;-68
2023/12/30 01:18:41;;;;;;;1.53;1.40;;;5.40;99.90;;;;;;2041543;28;20228;-68
2023/12/30 01:19:42;;;;;;;2.07;1.10;;;5.30;99.90;;;;;;2033986;28;20237;-68
2023/12/30 01:20:43;;;;;;;2.13;1.30;;;5.40;99.90;;;;;;2042878;28;20335;-68
2023/12/30 01:21:44;;;;;;;2.57;1.30;;;5.30;99.90;;;;;;2045822;28;20237;-68
2023/12/30 01:22:44;;;;;;;0.87;0.80;;;5.40;99.90;;;;;;2045289;28;20258;-68
2023/12/30 01:23:45;;;;;;;1.07;0.80;;;5.40;99.90;;;;;;2044896;28;20664;-68
2023/12/30 01:24:45;;;;;;;3.13;0.90;;;5.40;99.90;;;;;;2046637;28;20318;-68
2023/12/30 01:25:46;;;;;;;1.40;1.00;;;5.40;99.90;;;;;;2037665;29;20332;-68
2023/12/30 01:26:47;;;;;;;5.13;1.20;;;5.40;99.90;;;;;;2046201;28;20239;-68
2023/12/30 01:27:48;;;;;;;1.00;0.90;;;5.40;99.90;;;;;;2041797;28;20712;-68
2023/12/30 01:28:48;;;;;;;3.57;1.83;;;5.40;99.90;;;;;;2035058;29;20236;-68
2023/12/30 01:29:49;;;;;;;3.90;1.10;;;5.40;99.90;;;;;;2043330;28;20599;-68
2023/12/30 01:30:51;;;;;;;1.13;1.03;;;5.40;99.90;;;;;;2043462;28;20246;-68
2023/12/30 01:31:51;;;;;;;2.55;1.05;;;5.40;99.90;;;;;;2042691;28;20413;-68
2023/12/30 01:32:52;;;;;;;1.50;1.30;;;5.40;99.90;;;;;;2042177;28;20244;-68
2023/12/30 01:33:53;;;;;;;1.30;1.00;;;5.40;99.90;;;;;;2033254;28;20239;-68
2023/12/30 01:34:55;;;;;;;1.30;1.00;;;5.40;99.90;;;;;;2034136;29;20224;-68
2023/12/30 01:35:55;;;;;;;2.55;1.00;;;5.40;99.90;;;;;;2045696;28;20257;-68
2023/12/30 01:36:56;;;;;;;2.40;1.07;;;5.40;99.90;;;;;;2044946;28;20231;-68
2023/12/30 01:37:57;;;;;;;1.90;0.83;;;5.50;99.90;;;;;;2033100;29;20236;-68
2023/12/30 01:38:58;;;;;;;1.40;0.80;;;5.50;99.90;;;;;;2034603;28;20773;-68
2023/12/30 01:39:58;;;;;;;0.80;0.80;;;5.50;99.90;;;;;;2042587;28;20766;-68
2023/12/30 01:40:59;;;;;;;1.23;0.90;;;5.50;99.90;;;;;;2040664;28;20703;-68
2023/12/30 01:42:00;;;;;;;2.92;0.90;;;5.50;99.90;;;;;;2041590;28;20227;-68
2023/12/30 01:43:02;;;;;;;1.03;0.90;;;5.60;99.90;;;;;;2043477;28;21240;-67
2023/12/30 01:44:03;;;;;;;2.08;0.80;;;5.60;99.90;;;;;;2036789;29;20196;-68
2023/12/30 01:45:04;;;;;;;1.37;1.00;;;5.60;99.90;;;;;;2036851;29;20280;-67
2023/12/30 01:46:08;;;;;;;1.15;0.90;;;5.70;99.90;;;;;;2045924;28;20271;-67
2023/12/30 01:47:09;;;;;;;1.98;0.90;;;5.80;99.90;;;;;;2044397;28;20282;-68
2023/12/30 01:48:10;;;;;;;1.00;0.90;;;5.80;99.90;;;;;;2031972;29;20269;-67
2023/12/30 01:49:12;;;;;;;1.83;1.10;;;5.90;99.90;;;;;;2042342;28;20184;-68
2023/12/30 01:50:13;;;;;;;1.70;0.75;;;6.00;99.90;;;;;;2042386;28;20184;-67
2023/12/30 01:51:14;;;;;;;1.93;0.97;;;6.00;99.90;;;;;;2042263;28;20184;-68
2023/12/30 01:52:14;;;;;;;1.87;1.10;;;6.00;99.90;;;;;;2042778;28;20187;-68
2023/12/30 01:53:17;;;;;;;1.00;0.70;;;6.00;99.90;;;;;;2045106;28;20271;-68
2023/12/30 01:54:20;;;;;;;1.23;0.90;;;6.00;99.90;;;;;;2043123;28;20275;-68
2023/12/30 01:55:21;;;;;;;1.45;1.02;;;6.00;99.90;;;;;;2045222;28;20247;-68
2023/12/30 01:56:23;;;;;;;1.40;1.00;;;6.00;99.90;;;;;;2044872;28;20290;-67
2023/12/30 01:57:23;;;;;;;2.35;0.85;;;6.00;99.90;;;;;;2042452;28;20299;-68
2023/12/30 01:58:25;;;;;;;1.30;1.10;;;6.00;99.90;;;;;;2034147;28;20224;-68
2023/12/30 01:59:28;;;;;;;2.63;0.80;;;6.00;99.90;;;;;;2034003;28;20224;-68
2023/12/30 02:00:31;;;;;;;2.20;1.05;;;6.00;99.90;;;;;;2042351;28;20728;-68
2023/12/30 02:01:33;;;;;;;1.80;0.88;;;6.00;99.90;;;;;;2041476;28;20629;-68
2023/12/30 02:02:34;;;;;;;1.00;0.80;;;6.10;99.90;;;;;;2033096;29;20235;-68
2023/12/30 02:03:34;;;;;;;1.10;1.00;;;6.10;99.90;;;;;;2043356;28;20602;-68
2023/12/30 02:04:35;;;;;;;1.47;1.03;;;6.10;99.90;;;;;;2041262;28;20231;-68
2023/12/30 02:05:36;;;;;;;1.37;0.70;;;6.10;99.90;;;;;;2041205;28;20231;-68
2023/12/30 02:06:36;;;;;;;2.50;1.07;;;6.10;99.90;;;;;;2042468;28;20330;-68
2023/12/30 02:07:37;;;;;;;1.53;0.90;;;6.20;99.90;;;;;;2045816;28;20262;-67
2023/12/30 02:08:38;;;;;;;1.80;1.08;;;6.20;99.90;;;;;;2041127;28;20238;-67
2023/12/30 02:09:39;;;;;;;3.20;0.80;;;6.20;99.90;;;;;;2039764;28;20783;-68
2023/12/30 02:10:40;;;;;;;1.63;0.70;;;6.20;99.90;;;;;;2047281;28;20235;-67
2023/12/30 02:11:41;;;;;;;1.37;1.10;;;6.30;99.90;;;;;;2033664;28;20287;-67
2023/12/30 02:12:43;;;;;;;1.90;0.82;;;6.30;99.90;;;;;;2033302;28;20323;-68
2023/12/30 02:13:44;;;;;;;1.08;0.70;;;6.30;99.90;;;;;;2033694;28;20240;-68
2023/12/30 02:14:45;;;;;;;3.85;0.90;;;6.30;99.90;;;;;;2045525;28;20610;-68
2023/12/30 02:15:46;;;;;;;0.60;0.60;;;6.30;99.90;;;;;;2044623;28;20248;-68
2023/12/30 02:16:47;;;;;;;2.73;0.80;;;6.40;99.90;;;;;;2044197;28;20231;-68
2023/12/30 02:17:51;;;;;;;1.40;0.80;;;6.30;99.90;;;;;;2041603;28;20256;-68
2023/12/30 02:18:52;;;;;;;2.53;0.90;;;6.40;99.90;;;;;;2041772;28;20256;-68
2023/12/30 02:19:53;;;;;;;1.27;0.80;;;6.40;99.90;;;;;;2042747;28;20241;-68
2023/12/30 02:20:53;;;;;;;0.73;0.60;;;6.40;99.90;;;;;;2040038;28;20236;-68
2023/12/30 02:21:54;;;;;;;0.80;0.57;;;6.40;99.90;;;;;;2034350;29;20250;-68
2023/12/30 02:22:55;;;;;;;0.50;0.50;;;6.40;99.90;;;;;;2043838;28;20239;-68
2023/12/30 02:23:55;;;;;;;0.77;0.60;;;6.40;99.90;;;;;;2044561;28;20239;-68
2023/12/30 02:24:59;;;;;;;0.70;0.70;;;6.40;99.90;;;;;;2041702;28;20263;-68
2023/12/30 02:26:00;;;;;;;1.67;0.73;;;6.50;99.90;;;;;;2033570;29;20796;-68
2023/12/30 02:27:01;;;;;;;0.73;0.70;;;6.50;99.90;;;;;;2030780;28;20264;-68
2023/12/30 02:28:01;;;;;;;0.80;0.80;;;6.50;99.90;;;;;;2041780;28;20203;-68
2023/12/30 02:29:02;;;;;;;3.70;0.97;;;6.50;99.90;;;;;;2051451;28;20194;-67
2023/12/30 02:30:04;;;;;;;2.63;0.70;;;6.50;99.90;;;;;;2043429;28;20192;-68
2023/12/30 02:31:05;;;;;;;0.98;0.60;;;6.40;99.90;;;;;;2046363;28;20215;-68
2023/12/30 02:32:06;;;;;;;0.67;0.67;;;6.40;99.90;;;;;;2045723;28;20608;-68
2023/12/30 02:33:06;;;;;;;1.48;0.70;;;6.50;99.90;;;;;;2043465;28;20205;-68
2023/12/30 02:34:07;;;;;;;2.63;0.60;;;6.50;99.90;;;;;;2040778;28;20201;-68
2023/12/30 02:35:08;;;;;;;1.20;0.70;;;6.50;99.90;;;;;;2046222;28;20268;-68
2023/12/30 02:36:09;;;;;;;2.13;0.70;;;6.60;99.90;;;;;;2046037;28;20179;-68
2023/12/30 02:37:09;;;;;;;2.17;0.93;;;6.60;99.90;;;;;;2045566;28;20508;-68
2023/12/30 02:38:10;;;;;;;1.70;0.70;;;6.60;99.90;;;;;;2050799;28;20190;-68
2023/12/30 02:39:11;;;;;;;2.33;0.70;;;6.60;99.90;;;;;;2051645;28;20570;-68
2023/12/30 02:40:12;;;;;;;2.75;0.70;;;6.60;99.90;;;;;;2035382;28;20587;-68
2023/12/30 02:41:13;;;;;;;3.10;1.30;;;6.60;99.90;;;;;;2031837;29;20283;-68
2023/12/30 02:42:13;;;;;;;0.87;0.57;;;6.70;99.90;;;;;;2045732;28;20191;-68
2023/12/30 02:43:14;;;;;;;1.13;0.73;;;6.60;99.90;;;;;;2046783;28;20191;-68
2023/12/30 02:44:18;;;;;;;2.17;0.67;;;6.70;99.90;;;;;;2045339;28;20951;-68
2023/12/30 02:45:19;;;;;;;0.90;0.60;;;6.70;99.90;;;;;;2042937;28;20207;-68
2023/12/30 02:46:19;;;;;;;1.17;0.60;;;6.70;99.90;;;;;;2039890;28;20219;-68
2023/12/30 02:47:20;;;;;;;2.33;0.77;;;6.60;99.90;;;;;;2048411;28;20853;-68
2023/12/30 02:48:21;;;;;;;1.80;0.90;;;6.60;99.90;;;;;;2046645;28;20247;-68
2023/12/30 02:49:21;;;;;;;0.73;0.60;;;6.60;99.90;;;;;;2045537;28;20239;-68
2023/12/30 02:50:22;;;;;;;2.17;0.80;;;6.60;99.90;;;;;;2041696;28;20243;-68
2023/12/30 02:51:23;;;;;;;2.47;0.73;;;6.60;99.90;;;;;;2034194;29;20370;-68
2023/12/30 02:52:25;;;;;;;0.88;0.60;;;6.60;99.90;;;;;;2041800;28;20234;-68
2023/12/30 02:53:25;;;;;;;1.02;0.70;;;6.60;99.90;;;;;;2042428;28;20228;-68
2023/12/30 02:54:29;;;;;;;0.97;0.67;;;6.70;99.90;;;;;;2044059;28;20230;-68
2023/12/30 02:55:30;;;;;;;1.83;0.90;;;6.70;99.90;;;;;;2041768;28;20324;-69
2023/12/30 02:56:31;;;;;;;0.87;0.60;;;6.70;99.90;;;;;;2043795;28;20799;-68
2023/12/30 02:57:32;;;;;;;0.53;0.53;;;6.70;99.90;;;;;;2043114;28;20266;-69
2023/12/30 02:58:32;;;;;;;1.20;0.70;;;6.70;99.90;;;;;;2040782;28;20231;-68
2023/12/30 02:59:33;;;;;;;0.70;0.70;;;6.70;99.90;;;;;;2043080;28;20231;-69
2023/12/30 03:00:34;;;;;;;0.90;0.70;;;6.70;99.90;;;;;;2042657;28;20535;-68
2023/12/30 03:01:37;;;;;;;2.77;0.90;;;6.70;99.90;;;;;;2045612;28;20238;-68
2023/12/30 03:02:38;;;;;;;1.95;0.50;;;6.70;99.90;;;;;;2046020;28;20237;-69
2023/12/30 03:03:38;;;;;;;0.93;0.70;;;6.70;99.90;;;;;;2043612;28;20643;-69
2023/12/30 03:04:39;;;;;;;4.53;0.97;;;6.70;99.90;;;;;;2042234;28;20709;-68
2023/12/30 03:05:40;;;;;;;2.80;0.80;;;6.60;99.90;;;;;;2041474;28;20232;-68
2023/12/30 03:06:41;;;;;;;1.77;0.63;;;6.50;99.90;;;;;;2043065;28;20228;-68
2023/12/30 03:07:41;;;;;;;0.90;0.70;;;6.50;99.90;;;;;;2045586;28;20231;-68
2023/12/30 03:08:42;;;;;;;1.53;0.93;;;6.40;99.90;;;;;;2045610;28;20232;-69
2023/12/30 03:09:43;;;;;;;0.60;0.60;;;6.40;99.90;;;;;;2041903;28;20231;-68
2023/12/30 03:10:43;;;;;;;4.30;0.83;;;6.40;99.90;;;;;;2042147;28;20269;-68
2023/12/30 03:11:44;;;;;;;2.50;0.50;;;6.40;99.90;;;;;;2041253;28;20277;-68
2023/12/30 03:12:45;;;;;;;1.30;0.90;;;6.30;99.90;;;;;;2041016;28;20727;-68
2023/12/30 03:13:46;;;;;;;3.27;0.90;;;6.20;99.90;;;;;;2043269;28;20368;-68
2023/12/30 03:14:46;;;;;;;1.00;0.70;;;6.20;99.90;;;;;;2045314;28;20229;-68
2023/12/30 03:15:47;;;;;;;1.93;0.83;;;6.10;99.90;;;;;;2036668;28;20717;-69
2023/12/30 03:16:48;;;;;;;1.73;0.93;;;6.10;99.90;;;;;;2035267;28;20255;-69
2023/12/30 03:17:49;;;;;;;3.50;1.00;;;6.10;99.90;;;;;;2043244;28;20231;-69
2023/12/30 03:18:49;;;;;;;1.07;0.80;;;6.00;99.90;;;;;;2043970;28;20647;-69
2023/12/30 03:19:50;;;;;;;1.37;0.87;;;6.00;99.90;;;;;;2042771;28;20238;-69
2023/12/30 03:20:51;;;;;;;1.03;0.70;;;6.00;99.90;;;;;;2042010;28;20693;-69
2023/12/30 03:21:53;;;;;;;1.48;0.80;;;6.00;99.90;;;;;;2048433;28;20235;-69
2023/12/30 03:22:54;;;;;;;2.40;1.20;;;6.00;99.90;;;;;;2044044;28;20299;-69
2023/12/30 03:23:54;;;;;;;2.80;1.23;;;6.00;99.90;;;;;;2044641;28;20269;-70
2023/12/30 03:24:55;;;;;;;1.03;0.70;;;6.00;99.90;;;;;;2043845;28;20331;-69
2023/12/30 03:25:56;;;;;;;2.87;0.77;;;6.00;99.90;;;;;;2043766;28;20232;-69
2023/12/30 03:26:56;;;;;;;2.13;0.80;;;6.00;99.90;;;;;;2041392;28;20235;-69
2023/12/30 03:27:57;;;;;;;1.03;0.60;;;6.00;99.90;;;;;;2042035;28;20239;-69
2023/12/30 03:28:58;;;;;;;1.13;0.70;;;6.00;99.90;;;;;;2034451;29;20237;-69
2023/12/30 03:29:59;;;;;;;1.47;0.73;;;6.00;99.90;;;;;;2034315;29;20264;-69
2023/12/30 03:31:00;;;;;;;1.48;0.90;;;6.10;99.90;;;;;;2041222;28;20239;-69
2023/12/30 03:32:00;;;;;;;3.43;1.10;;;6.00;99.90;;;;;;2034962;29;20260;-69
2023/12/30 03:33:01;;;;;;;1.47;1.10;;;6.00;99.90;;;;;;2033131;29;20255;-69
2023/12/30 03:34:02;;;;;;;0.70;0.70;;;5.90;99.90;;;;;;2024820;29;20217;-70
2023/12/30 03:35:03;;;;;;;1.00;0.90;;;5.90;99.90;;;;;;2025736;29;20189;-70
2023/12/30 03:36:04;;;;;;;0.77;0.77;;;6.00;99.90;;;;;;2034037;28;20212;-70
2023/12/30 03:37:05;;;;;;;2.07;0.80;;;6.00;99.90;;;;;;2044279;28;20196;-70
2023/12/30 03:38:05;;;;;;;2.40;0.97;;;6.00;99.90;;;;;;2044163;28;20645;-69
2023/12/30 03:39:06;;;;;;;2.43;0.97;;;6.00;99.90;;;;;;2044362;28;20191;-69
2023/12/30 03:40:08;;;;;;;0.77;0.77;;;6.00;99.90;;;;;;2042579;28;20195;-69
2023/12/30 03:41:09;;;;;;;1.02;0.90;;;6.00;99.90;;;;;;2042080;28;20202;-69
2023/12/30 03:42:09;;;;;;;1.25;0.98;;;6.10;99.90;;;;;;2049860;28;20219;-69
2023/12/30 03:43:10;;;;;;;1.00;0.90;;;6.10;99.90;;;;;;2044679;28;20192;-69
2023/12/30 03:44:11;;;;;;;1.63;1.00;;;6.10;99.90;;;;;;2044519;28;20589;-69
2023/12/30 03:45:12;;;;;;;2.40;0.97;;;6.10;99.90;;;;;;2043433;28;20425;-69
2023/12/30 03:46:12;;;;;;;1.17;1.07;;;6.10;99.90;;;;;;2043456;28;20192;-68
2023/12/30 03:47:13;;;;;;;3.00;1.10;;;6.10;99.90;;;;;;2042571;28;20764;-68
2023/12/30 03:48:14;;;;;;;2.00;1.23;;;6.10;99.90;;;;;;2044986;28;20639;-68
2023/12/30 03:49:14;;;;;;;2.87;1.10;;;6.10;99.90;;;;;;2043905;28;20195;-68
2023/12/30 03:50:15;;;;;;;1.23;1.13;;;6.10;99.90;;;;;;2037070;29;20250;-68
2023/12/30 03:51:16;;;;;;;3.40;1.70;;;6.10;99.90;;;;;;2043484;28;20221;-68
2023/12/30 03:52:16;;;;;;;1.20;1.10;;;6.10;99.90;;;;;;2042621;28;20683;-68
2023/12/30 03:53:17;;;;;;;1.07;0.97;;;6.10;99.90;;;;;;2042498;28;20187;-68
2023/12/30 03:54:18;;;;;;;1.20;1.10;;;6.10;99.90;;;;;;2043067;28;20656;-68
2023/12/30 03:55:18;;;;;;;1.60;1.10;;;6.10;99.90;;;;;;2029919;29;20189;-68
2023/12/30 03:56:19;;;;;;;1.70;1.20;;;6.10;99.90;;;;;;2034681;28;20189;-69
2023/12/30 03:57:20;;;;;;;2.27;1.20;;;6.10;99.90;;;;;;2043617;28;20714;-69
2023/12/30 03:58:20;;;;;;;2.70;1.63;;;6.10;99.90;;;;;;2044404;28;20287;-68
2023/12/30 03:59:21;;;;;;;1.20;1.10;;;6.10;99.90;;;;;;2043138;28;20326;-68
2023/12/30 04:00:22;;;;;;;1.30;1.00;;;6.10;99.90;;;;;;2042198;28;20599;-68
2023/12/30 04:01:23;;;;;;;1.20;1.10;;;6.20;99.90;;;;;;2043856;28;20227;-68
2023/12/30 04:02:24;;;;;;;2.05;1.30;;;6.20;99.90;;;;;;2044831;28;20653;-68
2023/12/30 04:03:25;;;;;;;2.73;1.30;;;6.20;99.90;;;;;;2044557;28;20246;-68
2023/12/30 04:04:25;;;;;;;1.10;1.00;;;6.20;99.90;;;;;;2044305;28;20716;-68
2023/12/30 04:05:26;;;;;;;2.30;1.20;;;6.20;99.90;;;;;;2043189;28;20234;-68
2023/12/30 04:06:27;;;;;;;4.93;1.53;;;6.30;99.90;;;;;;2043460;28;20223;-68
2023/12/30 04:07:28;;;;;;;1.20;1.10;;;6.20;99.90;;;;;;2035811;28;20235;-68
2023/12/30 04:08:29;;;;;;;2.47;1.10;;;6.20;99.90;;;;;;2037550;29;20315;-68
2023/12/30 04:09:29;;;;;;;1.63;1.10;;;6.20;99.90;;;;;;2045326;28;20310;-68
2023/12/30 04:10:30;;;;;;;1.97;1.10;;;6.20;99.90;;;;;;2043815;28;20245;-68
2023/12/30 04:11:31;;;;;;;3.30;1.27;;;6.20;99.90;;;;;;2035439;29;20255;-68
2023/12/30 04:12:33;;;;;;;1.57;1.17;;;6.30;99.90;;;;;;2034318;29;20875;-68
2023/12/30 04:13:34;;;;;;;1.30;1.10;;;6.30;99.90;;;;;;2042412;28;20228;-68
2023/12/30 04:14:34;;;;;;;1.30;0.87;;;6.40;99.90;;;;;;2045602;28;20314;-69
2023/12/30 04:15:36;;;;;;;2.97;1.00;;;6.40;99.90;;;;;;2045087;28;20231;-68
2023/12/30 04:16:37;;;;;;;1.83;1.40;;;6.40;99.90;;;;;;2043742;28;20231;-68
2023/12/30 04:17:37;;;;;;;1.30;1.10;;;6.40;99.90;;;;;;2043911;28;20237;-68
2023/12/30 04:18:38;;;;;;;2.27;1.40;;;6.40;99.90;;;;;;2042724;28;20282;-69
2023/12/30 04:19:39;;;;;;;2.90;1.10;;;6.40;99.90;;;;;;2041948;28;20307;-69
2023/12/30 04:20:40;;;;;;;2.15;1.08;;;6.30;99.90;;;;;;2042075;28;20231;-68
2023/12/30 04:21:40;;;;;;;3.43;1.00;;;6.40;99.90;;;;;;2045840;28;20227;-69
2023/12/30 04:22:41;;;;;;;1.67;1.13;;;6.40;99.90;;;;;;2045000;28;20241;-69
2023/12/30 04:23:42;;;;;;;0.93;0.90;;;6.50;99.90;;;;;;2032067;28;20231;-69
2023/12/30 04:24:43;;;;;;;4.00;1.40;;;6.50;99.90;;;;;;2041298;28;20235;-69
2023/12/30 04:25:43;;;;;;;1.50;1.10;;;6.50;99.90;;;;;;2048859;28;20239;-69
2023/12/30 04:26:45;;;;;;;1.83;1.10;;;6.50;99.90;;;;;;2041362;28;20322;-68
2023/12/30 04:27:45;;;;;;;1.65;1.00;;;6.50;99.90;;;;;;2044472;28;20677;-68
2023/12/30 04:28:46;;;;;;;1.30;1.20;;;6.40;99.90;;;;;;2038285;28;20295;-68
2023/12/30 04:29:47;;;;;;;1.85;1.17;;;6.40;99.90;;;;;;2051147;28;20738;-69
2023/12/30 04:30:48;;;;;;;2.03;1.20;;;6.40;99.90;;;;;;2051008;28;20235;-69
2023/12/30 04:31:49;;;;;;;6.17;1.10;;;6.40;99.90;;;;;;2049906;28;20227;-69
2023/12/30 04:32:49;;;;;;;2.20;1.00;;;6.40;99.90;;;;;;2050601;28;20259;-69
2023/12/30 04:33:50;;;;;;;1.77;1.20;;;6.40;99.90;;;;;;2049593;28;20375;-68
2023/12/30 04:34:51;;;;;;;1.87;1.10;;;6.40;99.90;;;;;;2042580;28;20699;-69
2023/12/30 04:35:52;;;;;;;3.33;1.30;;;6.40;99.90;;;;;;2045504;28;20688;-69
2023/12/30 04:36:53;;;;;;;1.90;1.10;;;6.40;99.90;;;;;;2045577;28;20227;-69
2023/12/30 04:37:53;;;;;;;1.67;1.00;;;6.40;99.90;;;;;;2045562;28;20219;-68
2023/12/30 04:38:54;;;;;;;1.23;1.00;;;6.40;99.90;;;;;;2046618;28;20242;-68
2023/12/30 04:39:55;;;;;;;3.53;1.40;;;6.40;99.90;;;;;;2041627;28;20236;-69
2023/12/30 04:40:56;;;;;;;1.50;1.25;;;6.40;99.90;;;;;;2044765;28;20671;-69
2023/12/30 04:41:57;;;;;;;3.20;1.55;;;6.40;99.90;;;;;;2036665;29;20262;-69
2023/12/30 04:42:57;;;;;;;2.43;1.50;;;6.30;99.90;;;;;;2043618;28;20282;-69
2023/12/30 04:43:58;;;;;;;2.40;1.00;;;6.30;99.90;;;;;;2043730;28;20714;-69
2023/12/30 04:44:59;;;;;;;2.97;1.00;;;6.20;99.90;;;;;;2043368;28;20241;-69
2023/12/30 04:46:00;;;;;;;1.60;0.90;;;6.20;99.90;;;;;;2042799;28;20231;-69
2023/12/30 04:47:00;;;;;;;2.90;1.40;;;6.30;99.90;;;;;;2042262;28;20279;-69
2023/12/30 04:48:01;;;;;;;6.33;1.60;;;6.30;99.90;;;;;;2043579;28;20880;-68
2023/12/30 04:49:02;;;;;;;3.03;2.00;;;6.40;99.90;;;;;;2045773;28;20200;-68
2023/12/30 04:50:04;;;;;;;7.22;3.15;;;6.50;99.90;;;;;;2044184;28;20228;-68
2023/12/30 04:51:05;;;;;;;3.70;1.63;;;6.50;99.90;;;;;;2034864;29;20221;-69
2023/12/30 04:52:05;;;;;;;5.13;2.00;;;6.50;99.90;;;;;;2034257;29;20200;-68
2023/12/30 04:53:06;;;;;;;3.27;1.47;;;6.40;99.90;;;;;;2042540;28;20199;-68
2023/12/30 04:54:07;;;;;;;3.87;2.10;;;6.40;99.90;;;;;;2041753;28;20184;-68
2023/12/30 04:55:07;;;;;;;9.17;3.63;;;6.50;99.90;;;;;;2037973;29;20670;-68
2023/12/30 04:56:15;;;;;;;9.80;3.20;;;6.50;99.90;;;;;;2046283;28;20190;-69
2023/12/30 04:57:16;;;;;;;6.75;3.28;;;6.50;99.90;;;;;;2043737;28;20547;-68
2023/12/30 04:58:17;;;;;;;7.93;3.03;;;6.50;99.90;;;;;;2043194;28;20190;-69
2023/12/30 04:59:19;;;;;;;3.65;1.42;;;6.50;99.90;;;;;;2042193;28;20258;-69
2023/12/30 05:00:20;;;;;;;3.75;1.65;;;6.60;99.90;;;;;;2042154;28;20291;-69
2023/12/30 05:01:21;;;;;;;2.43;1.17;;;6.60;99.90;;;;;;2045650;28;20344;-69
2023/12/30 05:02:21;;;;;;;2.43;1.20;;;6.50;99.90;;;;;;2035296;29;20266;-68
2023/12/30 05:03:22;;;;;;;3.23;0.90;;;6.50;99.90;;;;;;2035748;28;20668;-69
2023/12/30 05:04:23;;;;;;;2.40;0.90;;;6.50;99.90;;;;;;2043443;28;20227;-69
2023/12/30 05:05:23;;;;;;;1.50;1.10;;;6.50;99.90;;;;;;2035044;29;20237;-69
2023/12/30 05:06:24;;;;;;;1.30;0.90;;;6.60;99.90;;;;;;2026122;29;20725;-69
2023/12/30 05:07:25;;;;;;;1.10;1.00;;;6.70;99.90;;;;;;2035083;29;20302;-69
2023/12/30 05:08:26;;;;;;;5.78;1.30;;;6.70;99.90;;;;;;2037986;29;20234;-68
2023/12/30 05:09:27;;;;;;;2.63;1.47;;;6.60;99.90;;;;;;2037672;29;20239;-69
2023/12/30 05:10:27;;;;;;;1.03;0.97;;;6.60;99.90;;;;;;2033475;28;20228;-68
2023/12/30 05:11:28;;;;;;;1.07;0.90;;;6.60;99.90;;;;;;2041276;28;20258;-68
2023/12/30 05:12:29;;;;;;;1.90;1.10;;;6.50;99.90;;;;;;2042682;28;20310;-68
2023/12/30 05:13:29;;;;;;;2.13;1.10;;;6.60;99.90;;;;;;2041806;28;20266;-68
2023/12/30 05:14:30;;;;;;;2.00;1.10;;;6.50;99.90;;;;;;2043926;28;20774;-68
2023/12/30 05:15:31;;;;;;;1.67;1.10;;;6.50;99.90;;;;;;2044905;28;20227;-68
2023/12/30 05:16:32;;;;;;;1.17;0.87;;;6.50;99.90;;;;;;2044187;28;20230;-68
2023/12/30 05:17:32;;;;;;;1.73;0.87;;;6.60;99.90;;;;;;2043137;28;20312;-68
2023/12/30 05:18:33;;;;;;;1.50;1.00;;;6.50;99.90;;;;;;2049459;28;20227;-68
2023/12/30 05:19:34;;;;;;;1.80;1.23;;;6.50;99.90;;;;;;2049834;28;20778;-69
2023/12/30 05:20:35;;;;;;;2.37;0.93;;;6.50;99.90;;;;;;2052051;28;20230;-68
2023/12/30 05:21:36;;;;;;;1.95;0.90;;;6.60;99.90;;;;;;2044189;28;20270;-69